Time;durP1;ratioP1;P1;durP2;ratioP2;P2;SDS_P1;SDS_P2;PMS_P1;PMS_P2;Temp;Humidity;BMP_temperature;BMP_pressure;BME280_temperature;BME280_humidity;BME280_pressure;Samples;Min_cycle;Max_cycle;Signal;HPM_P1;HPM_P2
2023/04/18 00:02:09;;;;;;;9.40;3.78;;;;;;;13.17;87.39;97828.19;4456920;32;20077;-83
2023/04/18 00:04:36;;;;;;;8.55;3.33;;;;;;;13.21;88.13;97834.09;4456832;32;20465;-83
2023/04/18 00:07:03;;;;;;;11.57;4.10;;;;;;;13.29;87.41;97835.34;4456498;32;20101;-84
2023/04/18 00:09:30;;;;;;;9.73;3.62;;;;;;;13.03;88.87;97841.09;4456712;32;20097;-83
2023/04/18 00:11:57;;;;;;;8.27;3.28;;;;;;;13.65;85.90;97838.47;4456702;32;20379;-83
2023/04/18 00:14:24;;;;;;;9.70;3.60;;;;;;;14.18;82.48;97832.69;4456431;32;20073;-83
2023/04/18 00:16:52;;;;;;;10.50;3.80;;;;;;;14.46;80.84;97842.25;4456523;32;20166;-83
2023/04/18 00:19:20;;;;;;;9.43;3.50;;;;;;;13.12;87.87;97845.78;4456735;32;20093;-83
2023/04/18 00:21:48;;;;;;;10.38;3.45;;;;;;;13.12;87.76;97848.38;4456531;32;20216;-83
2023/04/18 00:24:15;;;;;;;10.52;4.15;;;;;;;13.97;83.56;97834.00;4456700;32;20073;-83
2023/04/18 00:26:42;;;;;;;10.88;4.18;;;;;;;13.91;83.20;97835.16;4456805;32;20141;-83
2023/04/18 00:29:09;;;;;;;9.50;4.10;;;;;;;14.03;83.53;97838.78;4456182;32;20151;-83
2023/04/18 00:31:36;;;;;;;10.55;4.15;;;;;;;13.67;84.17;97841.81;4455839;32;20143;-84
2023/04/18 00:34:03;;;;;;;11.43;4.40;;;;;;;13.74;83.39;97838.78;4456606;32;20090;-83
2023/04/18 00:36:30;;;;;;;9.40;4.07;;;;;;;14.11;81.77;97842.59;4456228;32;20089;-83
2023/04/18 00:38:56;;;;;;;11.82;4.18;;;;;;;14.28;82.19;97833.81;4456604;32;20101;-83
2023/04/18 00:41:26;;;;;;;9.93;4.00;;;;;;;14.96;77.36;97838.25;4456507;32;20099;-84
2023/04/18 00:43:53;;;;;;;9.93;3.92;;;;;;;14.64;78.05;97841.09;4455383;32;20077;-83
2023/04/18 00:46:20;;;;;;;10.07;3.83;;;;;;;15.09;76.83;97846.91;4456667;32;20154;-83
2023/04/18 00:48:48;;;;;;;9.75;3.92;;;;;;;14.87;77.94;97846.63;4456127;32;20166;-83
2023/04/18 00:51:15;;;;;;;9.40;3.87;;;;;;;14.85;78.05;97843.28;4456596;32;20419;-83
2023/04/18 00:53:43;;;;;;;13.82;4.35;;;;;;;14.64;77.81;97840.28;4455185;32;20081;-83
2023/04/18 00:56:10;;;;;;;9.77;4.00;;;;;;;14.35;79.54;97842.03;4456181;32;20085;-84
2023/04/18 00:58:39;;;;;;;10.05;4.07;;;;;;;13.92;82.25;97839.44;4455225;32;20395;-83
2023/04/18 01:01:06;;;;;;;10.40;3.87;;;;;;;13.46;84.92;97851.66;4456420;32;20099;-84
2023/04/18 01:03:33;;;;;;;10.68;4.30;;;;;;;13.88;82.11;97849.16;4456082;32;20108;-83
2023/04/18 01:06:01;;;;;;;11.20;3.97;;;;;;;13.84;84.43;97837.31;4456477;32;20115;-84
2023/04/18 01:08:28;;;;;;;10.15;3.70;;;;;;;14.13;82.97;97843.34;4456459;32;20101;-83
2023/04/18 01:10:55;;;;;;;10.70;4.03;;;;;;;14.34;82.25;97837.78;4456035;32;20085;-83
2023/04/18 01:13:22;;;;;;;9.90;4.22;;;;;;;14.15;82.91;97838.09;4456202;32;20554;-83
2023/04/18 01:15:49;;;;;;;11.12;4.05;;;;;;;14.36;81.36;97841.12;4456374;32;20093;-83
2023/04/18 01:18:16;;;;;;;11.75;4.70;;;;;;;13.09;88.75;97843.37;4455782;32;20141;-83
2023/04/18 01:20:48;;;;;;;9.70;4.05;;;;;;;13.21;88.80;97844.47;4456468;32;20146;-83
2023/04/18 01:23:17;;;;;;;10.85;4.00;;;;;;;13.20;89.09;97847.97;4455151;32;20156;-83
2023/04/18 01:25:45;;;;;;;11.55;4.45;;;;;;;13.62;86.39;97838.66;4455812;32;20097;-83
2023/04/18 01:28:13;;;;;;;11.18;3.80;;;;;;;13.41;87.28;97838.97;4456174;32;20168;-83
2023/04/18 01:30:40;;;;;;;11.77;4.18;;;;;;;13.53;86.80;97840.88;4456012;32;20081;-83
2023/04/18 01:33:07;;;;;;;9.75;3.90;;;;;;;13.97;85.41;97834.81;4456111;32;20085;-83
2023/04/18 01:35:34;;;;;;;9.57;3.60;;;;;;;13.55;86.98;97833.00;4456311;32;20691;-83
2023/04/18 01:38:01;;;;;;;11.00;4.22;;;;;;;14.74;81.58;97825.78;4455775;32;20101;-83
2023/04/18 01:40:29;;;;;;;11.95;4.10;;;;;;;14.64;81.68;97830.72;4456196;32;20612;-83
2023/04/18 01:42:55;;;;;;;10.02;4.28;;;;;;;14.89;80.33;97831.78;4455999;32;20459;-83
2023/04/18 01:45:22;;;;;;;9.20;3.72;;;;;;;14.06;83.09;97834.28;4455773;32;20763;-83
2023/04/18 01:47:49;;;;;;;10.38;4.03;;;;;;;14.00;83.83;97834.63;4456115;32;20089;-83
2023/04/18 01:50:16;;;;;;;10.18;3.83;;;;;;;14.06;83.62;97834.28;4456098;32;20130;-83
2023/04/18 01:52:43;;;;;;;9.60;4.10;;;;;;;14.48;82.57;97834.38;4455598;32;20111;-83
2023/04/18 01:55:10;;;;;;;8.95;3.55;;;;;;;13.98;84.41;97833.06;4456082;32;20085;-83
2023/04/18 01:57:37;;;;;;;9.90;3.85;;;;;;;14.53;80.79;97837.50;4456120;32;20113;-83
2023/04/18 02:00:05;;;;;;;10.63;3.70;;;;;;;14.60;80.15;97837.03;4455680;32;20093;-83
2023/04/18 02:02:32;;;;;;;11.35;3.72;;;;;;;14.51;81.14;97839.38;4455889;32;20144;-83
2023/04/18 02:05:00;;;;;;;9.85;3.90;;;;;;;14.75;79.19;97840.44;4456016;32;20097;-83
2023/04/18 02:07:27;;;;;;;9.00;3.62;;;;;;;14.77;79.22;97842.00;4455673;32;20085;-83
2023/04/18 02:09:53;;;;;;;12.37;4.32;;;;;;;15.18;77.71;97848.94;4455848;32;20146;-83
2023/04/18 02:12:20;;;;;;;9.23;3.47;;;;;;;16.04;73.87;97849.31;4455936;32;20154;-83
2023/04/18 02:14:52;;;;;;;9.80;4.03;;;;;;;15.20;77.87;97851.44;4455486;32;20165;-84
2023/04/18 02:17:22;;;;;;;9.57;3.90;;;;;;;15.08;77.60;97847.03;4455506;32;20092;-83
2023/04/18 02:19:52;;;;;;;9.70;3.95;;;;;;;15.41;76.77;97841.41;4455561;32;20085;-83
2023/04/18 02:22:19;;;;;;;11.07;4.20;;;;;;;14.88;78.67;97843.09;4455902;32;20082;-83
2023/04/18 02:24:46;;;;;;;11.85;4.25;;;;;;;15.12;77.17;97848.50;4455669;32;20109;-83
2023/04/18 02:27:13;;;;;;;10.10;4.10;;;;;;;14.98;77.83;97857.16;4455381;32;20098;-83
2023/04/18 02:29:40;;;;;;;8.52;3.35;;;;;;;15.29;76.70;97854.25;4455478;32;20106;-83
2023/04/18 02:32:07;;;;;;;10.30;3.97;;;;;;;14.90;78.18;97852.47;4455646;32;20076;-83
2023/04/18 02:34:35;;;;;;;9.43;3.87;;;;;;;15.12;77.39;97851.09;4455191;32;20104;-83
2023/04/18 02:37:03;;;;;;;10.32;4.30;;;;;;;15.12;77.07;97849.34;4455585;32;20089;-83
2023/04/18 02:39:30;;;;;;;9.88;4.05;;;;;;;15.40;76.19;97850.97;4455353;32;20439;-83
2023/04/18 02:41:57;;;;;;;10.23;4.18;;;;;;;14.73;79.42;97856.12;4455250;32;20085;-83
2023/04/18 02:44:24;;;;;;;10.02;4.12;;;;;;;14.14;82.43;97855.41;4455380;32;20167;-83
2023/04/18 02:46:51;;;;;;;9.95;4.25;;;;;;;14.50;81.16;97854.13;4455492;32;20090;-83
2023/04/18 02:49:18;;;;;;;9.02;3.65;;;;;;;14.75;79.72;97853.41;4454944;32;20436;-83
2023/04/18 02:51:45;;;;;;;11.48;3.87;;;;;;;14.64;80.40;97850.66;4455503;32;20099;-83
2023/04/18 02:54:12;;;;;;;10.02;3.87;;;;;;;15.55;76.12;97852.56;4456236;32;20514;-83
2023/04/18 02:56:41;;;;;;;9.45;3.70;;;;;;;14.58;79.96;97859.69;4457018;32;20112;-84
2023/04/18 02:59:08;;;;;;;9.55;3.65;;;;;;;14.91;78.24;97855.91;4457216;32;20150;-83
2023/04/18 03:01:35;;;;;;;10.13;3.62;;;;;;;14.98;78.60;97849.38;4457353;32;20085;-83
2023/04/18 03:04:02;;;;;;;9.63;3.80;;;;;;;15.53;75.34;97853.63;4456822;32;20101;-84
2023/04/18 03:06:30;;;;;;;9.52;3.83;;;;;;;15.74;74.51;97864.41;4457302;32;20097;-84
2023/04/18 03:08:57;;;;;;;10.45;3.85;;;;;;;15.32;76.53;97863.66;4456731;32;20474;-83
2023/04/18 03:11:24;;;;;;;9.25;3.87;;;;;;;14.90;77.75;97860.25;4456139;32;20435;-84
2023/04/18 03:13:52;;;;;;;9.45;3.80;;;;;;;14.38;80.99;97853.09;4455967;32;20116;-84
2023/04/18 03:16:19;;;;;;;9.50;4.05;;;;;;;14.88;79.41;97864.69;4456972;32;20120;-84
2023/04/18 03:18:46;;;;;;;11.63;4.30;;;;;;;15.82;73.76;97862.09;4456842;32;20148;-83
2023/04/18 03:21:13;;;;;;;10.43;4.43;;;;;;;14.86;78.51;97858.78;4457206;32;20101;-84
2023/04/18 03:23:40;;;;;;;11.35;4.45;;;;;;;14.83;79.54;97858.97;4456693;32;20154;-84
2023/04/18 03:26:07;;;;;;;11.32;4.50;;;;;;;14.57;79.70;97865.81;4457117;32;20150;-84
2023/04/18 03:28:34;;;;;;;9.52;3.80;;;;;;;14.82;79.89;97865.09;4456889;32;20101;-84
2023/04/18 03:31:01;;;;;;;10.48;4.50;;;;;;;14.75;78.87;97859.44;4456816;32;20146;-84
2023/04/18 03:33:28;;;;;;;11.48;4.70;;;;;;;15.24;77.20;97868.50;4456878;32;20148;-84
2023/04/18 03:35:55;;;;;;;14.00;4.30;;;;;;;14.93;78.97;97872.22;4457105;32;20094;-83
2023/04/18 03:38:22;;;;;;;13.20;4.25;;;;;;;14.92;78.67;97867.97;4456535;32;20092;-83
2023/04/18 03:40:49;;;;;;;10.68;4.57;;;;;;;14.49;80.42;97869.78;4457117;32;20435;-84
2023/04/18 03:43:17;;;;;;;11.23;4.37;;;;;;;14.79;80.13;97864.47;4456995;32;20157;-83
2023/04/18 03:45:46;;;;;;;11.65;4.40;;;;;;;14.08;83.53;97866.13;4456608;32;20150;-84
2023/04/18 03:48:13;;;;;;;10.50;4.00;;;;;;;14.57;80.58;97870.12;4456856;32;20398;-83
2023/04/18 03:50:40;;;;;;;11.25;4.55;;;;;;;14.37;82.13;97863.56;4457051;32;20078;-84
2023/04/18 03:53:07;;;;;;;10.95;4.57;;;;;;;14.29;82.28;97863.19;4456366;32;20097;-83
2023/04/18 03:55:34;;;;;;;10.52;4.62;;;;;;;13.83;85.43;97864.19;4456891;32;20436;-84
2023/04/18 03:58:01;;;;;;;12.18;4.85;;;;;;;13.94;85.38;97867.91;4456543;32;20086;-83
2023/04/18 04:00:28;;;;;;;11.18;4.43;;;;;;;15.12;79.30;97872.72;4457024;32;20088;-83
2023/04/18 04:02:55;;;;;;;11.75;4.40;;;;;;;14.86;79.91;97871.75;4456799;32;20119;-84
2023/04/18 04:05:22;;;;;;;11.45;4.70;;;;;;;15.17;79.52;97875.03;4455556;32;20477;-84
2023/04/18 04:07:49;;;;;;;10.98;4.47;;;;;;;14.94;80.74;97882.50;4456848;32;20172;-84
2023/04/18 04:10:16;;;;;;;11.20;4.10;;;;;;;15.14;79.33;97888.22;4456775;32;20073;-83
2023/04/18 04:12:43;;;;;;;9.50;3.87;;;;;;;15.21;79.12;97877.34;4456343;32;20132;-83
2023/04/18 04:15:10;;;;;;;11.38;3.70;;;;;;;15.36;77.09;97882.47;4456861;32;20111;-84
2023/04/18 04:17:37;;;;;;;11.52;4.30;;;;;;;14.91;79.29;97890.50;4456463;32;20093;-84
2023/04/18 04:20:05;;;;;;;10.45;4.25;;;;;;;15.09;79.29;97892.84;4456441;32;20161;-84
2023/04/18 04:22:33;;;;;;;9.93;3.80;;;;;;;15.84;75.51;97896.66;4456699;32;20120;-84
2023/04/18 04:25:00;;;;;;;9.80;4.10;;;;;;;15.57;76.21;97904.47;4456770;32;20428;-84
2023/04/18 04:27:27;;;;;;;10.15;4.32;;;;;;;15.58;76.56;97906.16;4456376;32;20141;-84
2023/04/18 04:29:55;;;;;;;10.23;3.90;;;;;;;15.95;73.80;97903.75;4456525;32;20428;-84
2023/04/18 04:32:22;;;;;;;7.82;3.47;;;;;;;16.23;73.25;97900.97;4456783;32;20426;-84
2023/04/18 04:34:49;;;;;;;10.38;3.87;;;;;;;15.93;74.18;97900.41;4456270;32;20124;-84
2023/04/18 04:37:17;;;;;;;9.70;3.90;;;;;;;16.13;73.53;97907.72;4456728;32;20096;-84
2023/04/18 04:39:45;;;;;;;10.88;4.25;;;;;;;15.69;75.01;97901.09;4456479;32;20444;-84
2023/04/18 04:42:12;;;;;;;10.60;4.22;;;;;;;15.37;77.55;97899.75;4456289;32;20096;-84
2023/04/18 04:44:40;;;;;;;9.82;4.07;;;;;;;15.61;76.04;97896.41;4456640;32;20154;-84
2023/04/18 04:47:07;;;;;;;8.68;3.72;;;;;;;16.31;72.86;97903.88;4456296;32;20090;-84
2023/04/18 04:49:34;;;;;;;11.07;4.28;;;;;;;16.39;71.96;97908.56;4456363;32;20081;-84
2023/04/18 04:52:01;;;;;;;9.55;3.72;;;;;;;16.36;71.58;97913.97;4456655;32;20141;-84
2023/04/18 04:54:29;;;;;;;9.77;3.90;;;;;;;16.15;73.02;97916.25;4456104;32;20097;-84
2023/04/18 04:56:56;;;;;;;9.65;4.05;;;;;;;15.49;75.91;97917.97;4456494;32;20080;-83
2023/04/18 04:59:23;;;;;;;9.43;3.53;;;;;;;16.35;72.13;97915.75;4456280;32;20108;-84
2023/04/18 05:01:50;;;;;;;9.45;3.83;;;;;;;16.03;74.05;97922.28;4456279;32;20436;-84
2023/04/18 05:04:17;;;;;;;8.77;3.78;;;;;;;15.11;78.51;97920.44;4456447;32;20117;-84
2023/04/18 05:06:44;;;;;;;9.77;3.95;;;;;;;14.98;78.92;97917.75;4456478;32;20459;-84
2023/04/18 05:09:12;;;;;;;11.02;4.32;;;;;;;16.29;73.12;97921.38;4455992;32;20073;-84
2023/04/18 05:11:39;;;;;;;9.68;4.25;;;;;;;16.56;71.81;97920.41;4456527;32;20101;-84
2023/04/18 05:14:06;;;;;;;9.82;4.30;;;;;;;16.96;69.40;97924.56;4456222;32;20162;-84
2023/04/18 05:16:33;;;;;;;10.15;4.12;;;;;;;17.21;68.17;97925.41;4454309;32;20157;-84
2023/04/18 05:19:00;;;;;;;8.43;3.67;;;;;;;17.06;69.16;97930.78;4455942;32;20161;-84
2023/04/18 05:21:27;;;;;;;11.30;4.28;;;;;;;16.66;70.12;97930.09;4456467;32;20146;-84
2023/04/18 05:23:57;;;;;;;12.82;4.18;;;;;;;17.59;66.31;97933.09;4455857;32;20448;-84
2023/04/18 05:26:24;;;;;;;10.18;4.45;;;;;;;17.74;65.76;97936.37;4456320;32;20142;-84
2023/04/18 05:28:51;;;;;;;9.95;4.10;;;;;;;17.32;67.25;97939.34;4456232;32;20073;-84
2023/04/18 05:31:18;;;;;;;11.12;4.57;;;;;;;17.73;66.08;97938.16;4455983;32;20111;-84
2023/04/18 05:33:45;;;;;;;9.82;3.83;;;;;;;17.99;64.75;97940.63;4456093;32;20397;-84
2023/04/18 05:36:12;;;;;;;9.70;3.97;;;;;;;17.69;65.68;97941.94;4456001;32;20137;-84
2023/04/18 05:38:39;;;;;;;10.30;4.50;;;;;;;17.87;65.33;97945.81;4456111;32;20376;-84
2023/04/18 05:41:05;;;;;;;9.90;4.30;;;;;;;18.05;64.24;97950.59;4458822;32;20065;-83
2023/04/18 05:43:32;;;;;;;10.02;4.32;;;;;;;18.14;64.17;97940.31;4459181;32;20101;-83
2023/04/18 05:45:59;;;;;;;10.45;3.97;;;;;;;17.80;65.12;97955.03;4459085;32;20085;-83
2023/04/18 05:48:26;;;;;;;12.55;4.10;;;;;;;16.54;69.72;97949.19;4458649;32;20049;-82
2023/04/18 05:50:53;;;;;;;11.00;4.70;;;;;;;15.97;73.80;97956.53;4450939;32;257812;-82
2023/04/18 05:53:20;;;;;;;10.32;4.85;;;;;;;14.77;78.17;97953.69;4459171;32;20414;-83
2023/04/18 05:55:47;;;;;;;11.77;5.40;;;;;;;14.09;82.88;97950.81;4458486;32;20493;-83
2023/04/18 05:58:14;;;;;;;13.32;5.35;;;;;;;12.82;90.76;97956.22;4459440;32;20088;-82
2023/04/18 06:00:46;;;;;;;13.45;5.18;;;;;;;13.81;87.46;97964.53;4460581;32;20107;-82
2023/04/18 06:03:13;;;;;;;12.18;4.87;;;;;;;13.29;89.42;97956.25;4456936;32;20427;-84
2023/04/18 06:05:40;;;;;;;12.88;5.18;;;;;;;12.51;94.06;97950.06;4456577;32;20127;-86
2023/04/18 06:08:08;;;;;;;14.40;4.80;;;;;;;12.38;95.84;97951.63;4461805;32;20053;-86
2023/04/18 06:10:34;;;;;;;14.00;4.87;;;;;;;12.42;97.38;97959.13;4460689;32;20084;-85
2023/04/18 06:13:04;;;;;;;10.90;4.70;;;;;;;13.23;92.79;97964.38;4455446;32;20120;-88
2023/04/18 06:15:31;;;;;;;13.35;5.53;;;;;;;12.41;97.48;97960.03;4454817;32;20153;-87
2023/04/18 06:17:58;;;;;;;16.15;5.47;;;;;;;13.06;93.70;97967.00;4456066;32;20086;-86
2023/04/18 06:20:25;;;;;;;11.40;4.78;;;;;;;12.83;96.04;97963.06;4455494;32;20113;-86
2023/04/18 06:22:52;;;;;;;12.20;4.75;;;;;;;12.26;99.17;97967.78;4456043;32;20115;-86
2023/04/18 06:25:19;;;;;;;13.27;5.18;;;;;;;12.62;98.13;97965.87;4458330;32;20084;-87
2023/04/18 06:27:48;;;;;;;14.98;4.70;;;;;;;12.63;99.06;97974.47;4465875;32;20099;-87
2023/04/18 06:30:15;;;;;;;14.32;5.22;;;;;;;12.46;100.00;97972.75;4467021;32;20507;-86
2023/04/18 06:32:42;;;;;;;12.98;5.47;;;;;;;12.37;100.00;97976.66;4456389;32;20081;-86
2023/04/18 06:35:09;;;;;;;13.52;5.47;;;;;;;12.14;100.00;97983.00;4461021;32;20049;-87
2023/04/18 06:37:36;;;;;;;13.80;5.28;;;;;;;12.61;100.00;97981.47;4458819;32;20154;-88
2023/04/18 06:40:04;;;;;;;11.05;5.00;;;;;;;12.62;100.00;97983.97;4459209;32;20153;-87
2023/04/18 06:42:31;;;;;;;13.32;4.78;;;;;;;11.65;100.00;97971.59;4459430;32;20065;-88
2023/04/18 06:44:58;;;;;;;13.68;5.40;;;;;;;12.53;100.00;97983.63;4460555;32;20169;-86
2023/04/18 06:47:25;;;;;;;15.63;6.10;;;;;;;12.39;100.00;97985.16;4459303;32;20094;-86
2023/04/18 06:49:54;;;;;;;13.82;5.25;;;;;;;12.14;100.00;97979.56;4460172;32;20099;-86
2023/04/18 06:52:21;;;;;;;13.02;5.22;;;;;;;12.08;100.00;97987.63;4463504;32;20093;-86
2023/04/18 06:54:48;;;;;;;14.23;5.95;;;;;;;12.07;100.00;97989.37;4461803;32;20053;-86
2023/04/18 06:57:15;;;;;;;13.20;5.78;;;;;;;12.61;100.00;97984.91;4465897;32;20115;-88
2023/04/18 06:59:41;;;;;;;12.57;5.18;;;;;;;12.10;100.00;97988.37;4462092;32;20119;-89
2023/04/18 07:02:08;;;;;;;12.40;5.15;;;;;;;12.89;100.00;97986.88;4458128;32;20154;-87
2023/04/18 07:04:35;;;;;;;14.55;5.80;;;;;;;12.43;100.00;97996.19;4456091;32;20089;-89
2023/04/18 07:07:04;;;;;;;15.48;6.07;;;;;;;13.38;100.00;97999.81;4456578;32;20073;-87
2023/04/18 07:09:31;;;;;;;13.68;5.70;;;;;;;14.02;97.54;98001.38;4455644;32;20097;-86
2023/04/18 07:11:58;;;;;;;12.05;5.15;;;;;;;13.55;99.81;97998.88;4456131;32;20097;-83
2023/04/18 07:14:25;;;;;;;12.20;5.30;;;;;;;14.01;95.78;97998.88;4455730;32;20439;-86
2023/04/18 07:16:53;;;;;;;11.52;4.60;;;;;;;13.92;95.42;98005.44;4456804;32;20124;-85
2023/04/18 07:19:21;;;;;;;11.32;4.72;;;;;;;12.81;100.00;97995.97;4459407;32;20065;-85
2023/04/18 07:21:48;;;;;;;13.62;4.97;;;;;;;12.99;100.00;98003.63;4457473;32;20112;-86
2023/04/18 07:24:15;;;;;;;10.35;3.92;;;;;;;14.00;97.14;98003.25;4456871;32;20089;-87
2023/04/18 07:26:42;;;;;;;12.00;4.68;;;;;;;14.58;92.23;97999.06;4456555;32;20077;-87
2023/04/18 07:29:19;;;;;;;9.60;4.30;;;;;;;14.87;91.48;97992.09;4458706;32;20084;-88
2023/04/18 07:31:46;;;;;;;8.87;3.87;;;;;;;14.84;90.18;97997.47;4461029;32;20097;-88
2023/04/18 07:34:13;;;;;;;8.25;3.47;;;;;;;14.76;92.12;98000.53;4460751;32;20225;-89
2023/04/18 07:36:41;;;;;;;9.68;3.70;;;;;;;14.82;91.13;97996.75;4448414;32;20089;-89
2023/04/18 07:39:12;;;;;;;8.02;3.15;;;;;;;14.74;91.20;97998.03;4450723;32;20088;-89
2023/04/18 07:41:39;;;;;;;10.07;3.90;;;;;;;15.14;90.15;97998.19;4448590;32;20116;-90
2023/04/18 07:44:06;;;;;;;10.10;4.07;;;;;;;14.46;94.30;98009.25;4461759;32;20103;-88
2023/04/18 07:46:33;;;;;;;9.88;3.60;;;;;;;14.64;94.45;97999.50;4458987;32;20086;-89
2023/04/18 07:49:01;;;;;;;10.05;3.90;;;;;;;14.00;96.92;98012.78;4458959;32;20119;-87
2023/04/18 07:51:30;;;;;;;7.57;3.05;;;;;;;14.27;94.77;98010.38;4457485;32;20101;-87
2023/04/18 07:53:58;;;;;;;9.50;3.70;;;;;;;14.01;95.16;98017.03;4458836;32;20107;-87
2023/04/18 07:56:26;;;;;;;9.00;3.15;;;;;;;13.67;96.48;98018.13;4457756;32;20722;-86
2023/04/18 07:58:52;;;;;;;8.65;3.03;;;;;;;13.54;98.99;98025.75;4458121;32;20093;-87
2023/04/18 08:01:23;;;;;;;6.15;2.60;;;;;;;13.50;96.35;98004.31;4458181;32;20110;-87
2023/04/18 08:03:51;;;;;;;8.27;3.25;;;;;;;12.98;98.60;98014.06;4455827;32;20595;-85
2023/04/18 08:06:20;;;;;;;9.23;3.90;;;;;;;12.67;99.86;98025.19;4457591;32;20080;-88
2023/04/18 08:08:50;;;;;;;8.00;3.12;;;;;;;12.99;100.00;98020.91;4457095;32;20427;-88
2023/04/18 08:11:16;;;;;;;7.78;3.40;;;;;;;13.06;100.00;98019.66;4459179;32;20116;-84
2023/04/18 08:13:43;;;;;;;11.12;3.85;;;;;;;12.60;100.00;98018.63;4459525;32;20075;-86
2023/04/18 08:16:10;;;;;;;9.95;3.53;;;;;;;12.60;100.00;98016.03;4464127;32;20146;-86
2023/04/18 08:18:39;;;;;;;7.78;3.00;;;;;;;12.80;100.00;98010.69;4459704;32;20077;-88
2023/04/18 08:21:06;;;;;;;7.32;2.58;;;;;;;12.64;100.00;98012.37;4457933;32;20105;-86
2023/04/18 08:23:33;;;;;;;10.60;3.33;;;;;;;12.70;100.00;98018.06;4457502;32;20089;-87
2023/04/18 08:26:00;;;;;;;7.97;3.17;;;;;;;12.52;100.00;98023.34;4456384;32;20395;-87
2023/04/18 08:28:28;;;;;;;9.55;3.45;;;;;;;12.47;100.00;98026.19;4457243;32;20116;-87
2023/04/18 08:30:55;;;;;;;8.93;3.33;;;;;;;12.29;100.00;98024.53;4460405;32;20158;-87
2023/04/18 08:33:23;;;;;;;7.75;3.22;;;;;;;12.62;100.00;98027.97;4457830;32;20224;-87
2023/04/18 08:35:50;;;;;;;10.43;3.80;;;;;;;12.21;100.00;98026.63;4458364;32;20081;-85
2023/04/18 08:38:18;;;;;;;9.88;3.90;;;;;;;12.22;100.00;98033.47;4456474;32;20100;-87
2023/04/18 08:40:45;;;;;;;6.25;2.58;;;;;;;12.62;100.00;98040.09;4457359;32;20455;-85
2023/04/18 08:43:14;;;;;;;9.95;3.70;;;;;;;12.34;100.00;98040.66;4457328;32;20089;-86
2023/04/18 08:45:42;;;;;;;8.57;3.65;;;;;;;12.58;100.00;98039.41;4458766;32;20151;-87
2023/04/18 08:48:15;;;;;;;7.37;2.70;;;;;;;12.61;100.00;98044.44;4455957;32;20396;-88
2023/04/18 08:50:44;;;;;;;7.78;2.75;;;;;;;12.50;99.46;98038.97;4457535;32;20818;-86
2023/04/18 08:53:11;;;;;;;7.55;2.92;;;;;;;12.55;100.00;98037.00;4456764;32;20093;-86
2023/04/18 08:55:39;;;;;;;8.50;2.97;;;;;;;12.65;100.00;98043.38;4455245;32;20077;-87
2023/04/18 08:58:06;;;;;;;5.68;2.40;;;;;;;12.28;100.00;98036.63;4455242;32;20132;-88
2023/04/18 09:00:34;;;;;;;11.98;3.75;;;;;;;12.47;98.07;98049.47;4457581;32;20057;-85
2023/04/18 09:03:01;;;;;;;8.15;2.95;;;;;;;13.08;98.39;98048.06;4457755;32;20088;-86
2023/04/18 09:05:28;;;;;;;6.68;2.40;;;;;;;12.58;99.82;98044.59;4456330;32;20077;-85
2023/04/18 09:07:55;;;;;;;6.25;2.45;;;;;;;12.70;97.36;98049.16;4455030;32;20121;-85
2023/04/18 09:10:31;;;;;;;9.20;2.92;;;;;;;12.12;100.00;98054.66;4456433;32;20112;-86
2023/04/18 09:13:01;;;;;;;7.32;2.70;;;;;;;12.41;99.74;98053.19;4456169;32;20436;-86
2023/04/18 09:15:30;;;;;;;6.25;2.00;;;;;;;12.23;100.00;98058.44;4455975;32;20081;-86
2023/04/18 09:18:01;;;;;;;8.55;2.67;;;;;;;13.29;95.04;98065.09;4455551;32;20507;-86
2023/04/18 09:20:36;;;;;;;7.65;2.40;;;;;;;13.54;90.80;98062.88;4456172;32;20137;-86
2023/04/18 09:23:09;;;;;;;6.93;2.33;;;;;;;12.90;91.50;98061.06;4455952;32;20088;-86
2023/04/18 09:25:47;;;;;;;8.35;2.33;;;;;;;13.82;89.43;98069.97;4456146;32;20519;-88
2023/04/18 09:28:27;;;;;;;5.90;2.12;;;;;;;14.28;85.53;98072.56;4455888;32;20154;-86
2023/04/18 09:31:10;;;;;;;5.93;1.80;;;;;;;13.53;87.83;98068.13;4458554;32;20528;-87
2023/04/18 09:33:41;;;;;;;8.63;2.60;;;;;;;13.14;90.02;98058.09;4458823;32;20092;-89
2023/04/18 09:36:19;;;;;;;7.87;2.08;;;;;;;13.25;93.63;98068.75;4457924;32;20100;-85
2023/04/18 09:38:49;;;;;;;7.90;2.65;;;;;;;13.02;93.64;98068.19;4465665;32;20135;-86
2023/04/18 09:41:19;;;;;;;6.10;2.20;;;;;;;13.64;93.01;98080.50;4458527;32;20105;-84
2023/04/18 09:43:47;;;;;;;9.13;3.08;;;;;;;14.07;89.75;98076.38;4459161;32;20081;-85
2023/04/18 09:46:16;;;;;;;6.22;2.10;;;;;;;13.54;93.59;98078.41;4456661;32;20078;-86
2023/04/18 09:48:43;;;;;;;10.00;3.45;;;;;;;13.74;91.96;98076.50;4458313;32;20112;-85
2023/04/18 09:51:13;;;;;;;7.03;2.70;;;;;;;14.15;93.48;98080.22;4465909;32;20129;-84
2023/04/18 09:53:46;;;;;;;10.07;3.28;;;;;;;14.05;94.08;98073.88;4470094;32;20065;-84
2023/04/18 09:56:24;;;;;;;9.07;3.00;;;;;;;14.13;93.85;98081.19;4468647;32;20112;-84
2023/04/18 09:59:11;;;;;;;7.20;3.12;;;;;;;13.20;100.00;98073.37;4469544;32;20078;-84
2023/04/18 10:01:44;;;;;;;7.70;3.30;;;;;;;13.85;99.81;98072.37;4468573;32;20391;-86
2023/04/18 10:04:13;;;;;;;8.40;3.28;;;;;;;13.60;97.57;98074.63;4457651;32;20089;-85
2023/04/18 10:06:43;;;;;;;9.25;3.53;;;;;;;13.72;98.08;98079.19;4459974;32;20081;-84
2023/04/18 10:09:11;;;;;;;10.75;3.25;;;;;;;14.03;98.00;98083.47;4455930;32;20121;-82
2023/04/18 10:11:38;;;;;;;8.15;3.50;;;;;;;14.17;98.23;98082.72;4454936;32;20135;-82
2023/04/18 10:14:11;;;;;;;8.63;2.90;;;;;;;14.13;97.23;98087.22;4455888;32;20088;-82
2023/04/18 10:16:38;;;;;;;8.40;3.28;;;;;;;13.64;99.06;98080.50;4454849;32;20125;-82
2023/04/18 10:19:25;;;;;;;8.43;3.75;;;;;;;13.13;100.00;98083.19;4454810;32;20113;-82
2023/04/18 10:21:54;;;;;;;9.05;3.55;;;;;;;13.16;100.00;98080.41;4456113;32;20149;-82
2023/04/18 10:24:47;;;;;;;6.85;2.53;;;;;;;13.95;97.31;98079.66;4455735;32;20141;-82
2023/04/18 10:27:15;;;;;;;8.02;2.70;;;;;;;13.90;95.08;98082.50;4458749;32;20081;-82
2023/04/18 10:30:00;;;;;;;8.10;3.03;;;;;;;13.69;99.56;98081.09;4456491;32;20121;-82
2023/04/18 10:32:27;;;;;;;8.63;2.90;;;;;;;13.83;98.26;98083.78;4457015;32;20093;-82
2023/04/18 10:34:55;;;;;;;9.00;3.20;;;;;;;13.64;99.16;98080.50;4458513;32;20089;-82
2023/04/18 10:37:21;;;;;;;7.97;2.78;;;;;;;14.03;98.47;98082.63;4457934;32;20146;-82
2023/04/18 10:40:04;;;;;;;7.72;3.28;;;;;;;14.17;98.79;98086.16;4456283;32;20097;-82
2023/04/18 10:42:47;;;;;;;10.05;3.25;;;;;;;13.41;100.00;98077.41;4458046;32;20450;-82
2023/04/18 10:45:23;;;;;;;8.65;3.22;;;;;;;14.11;99.21;98076.09;4456987;32;20092;-82
2023/04/18 10:48:30;;;;;;;9.52;3.45;;;;;;;14.38;97.32;98072.87;4461827;32;20099;-81
2023/04/18 10:51:12;;;;;;;7.37;2.78;;;;;;;13.68;100.00;98074.22;4462099;32;20112;-82
2023/04/18 10:53:47;;;;;;;9.68;3.03;;;;;;;13.94;100.00;98072.81;4463942;32;20113;-82
2023/04/18 10:56:15;;;;;;;7.97;2.90;;;;;;;14.94;95.01;98069.56;4464726;32;20081;-82
2023/04/18 10:59:02;;;;;;;9.75;3.20;;;;;;;14.40;98.87;98074.44;4465507;32;20110;-81
2023/04/18 11:01:31;;;;;;;7.68;2.90;;;;;;;14.88;95.03;98075.13;4464397;32;20153;-81
2023/04/18 11:03:59;;;;;;;7.05;2.80;;;;;;;14.35;100.00;98073.88;4462068;32;20150;-81
2023/04/18 11:06:26;;;;;;;5.78;2.40;;;;;;;14.29;94.13;98068.22;4459707;32;20149;-81
2023/04/18 11:09:10;;;;;;;8.02;3.12;;;;;;;14.26;97.37;98063.19;4458642;32;20142;-82
2023/04/18 11:11:37;;;;;;;7.62;2.87;;;;;;;14.11;94.15;98064.87;4464934;32;20149;-81
2023/04/18 11:14:04;;;;;;;6.97;2.83;;;;;;;14.25;96.81;98066.69;4465259;32;20081;-81
2023/04/18 11:16:32;;;;;;;7.87;3.20;;;;;;;14.04;97.23;98072.19;4459236;32;20093;-82
2023/04/18 11:18:59;;;;;;;8.18;2.92;;;;;;;14.70;95.98;98069.25;4456773;32;20099;-80
2023/04/18 11:21:27;;;;;;;7.62;3.05;;;;;;;14.94;92.97;98064.37;4456907;32;20111;-81
2023/04/18 11:23:57;;;;;;;9.30;3.30;;;;;;;15.48;89.29;98061.91;4457301;32;20120;-81
2023/04/18 11:26:27;;;;;;;8.90;3.47;;;;;;;15.73;86.13;98063.84;4456983;32;20592;-82
2023/04/18 11:28:58;;;;;;;7.28;2.83;;;;;;;15.25;91.63;98065.09;4456714;32;20452;-81
2023/04/18 11:31:25;;;;;;;5.82;2.55;;;;;;;14.72;89.35;98058.78;4456004;32;20156;-81
2023/04/18 11:33:55;;;;;;;7.80;3.10;;;;;;;14.25;91.44;98069.28;4456959;32;20116;-81
2023/04/18 11:36:22;;;;;;;7.12;2.70;;;;;;;14.80;90.11;98064.37;4456728;32;20138;-81